Карточка аэропорта UAKD

Внимание!
Информация на этой странице в стадии наполнения.
Если вы не увидели какой-то информации, или заметили неточность - пожалуйста сообщите нам!
Спасибо!
Команда RU-STAFF
Название аэропортаЖезказган
Название аэропорта (англ.)Zhezkazgan
Превышение1250 ft. (381 m.)
Координаты47°42.618', 67°44.382'
Высота перехода10000ft
Эшелон переходаFL120, QNH<733:FL130
Коды ответчика0670-0673, 7274-7277
Зона ОрВДАстана РПИ (UACN)
Данные METARUAKD 150730Z 20004MPS 170V240 9999 SCT046 28/10 Q1002 NOSIG RMK QFE718/0958
Проноз погоды (TAF)UAKD 150504Z 1506/1515 22007G12MPS 9999 SCT030CB BKN040 TEMPO 1506/1513 26013G19MPS 3100 -TSRA BLDU BKN030CB TEMPO 1513/1515 22013MPS -SHRA BKN030CB
NOTAMshow/hide NOTAM
AWOS   TABLE

Информация о ВПП

ВПП Длина ВПП (м.) Покрытие Курс ВПП Частота ILS
042600Асфальтобетон44 
222600Асфальтобетон224110.7

Диспетчерские позиции




Спутниковое изображение